sensor_id;sensor_type;location;lat;lon;timestamp;P1;durP1;ratioP1;P2;durP2;ratioP2
40907;SDS011;51055;59.436;24.778;2023-07-22T00:00:05;4.13;;;1.60;;
40907;SDS011;51055;59.436;24.778;2023-07-22T00:02:34;3.80;;;1.77;;
40907;SDS011;51055;59.436;24.778;2023-07-22T00:05:03;6.37;;;1.90;;
40907;SDS011;51055;59.436;24.778;2023-07-22T00:07:31;6.13;;;1.75;;
40907;SDS011;51055;59.436;24.778;2023-07-22T00:09:59;6.82;;;1.70;;
40907;SDS011;51055;59.436;24.778;2023-07-22T00:12:27;5.00;;;1.75;;
40907;SDS011;51055;59.436;24.778;2023-07-22T00:14:55;8.77;;;1.88;;
40907;SDS011;51055;59.436;24.778;2023-07-22T00:17:23;8.07;;;1.95;;
40907;SDS011;51055;59.436;24.778;2023-07-22T00:19:52;5.47;;;2.03;;
40907;SDS011;51055;59.436;24.778;2023-07-22T00:22:20;5.97;;;1.65;;
40907;SDS011;51055;59.436;24.778;2023-07-22T00:24:48;6.45;;;1.80;;
40907;SDS011;51055;59.436;24.778;2023-07-22T00:27:16;4.30;;;1.70;;
40907;SDS011;51055;59.436;24.778;2023-07-22T00:29:44;4.22;;;1.60;;
40907;SDS011;51055;59.436;24.778;2023-07-22T00:32:12;5.18;;;1.92;;
40907;SDS011;51055;59.436;24.778;2023-07-22T00:34:41;9.60;;;2.28;;
40907;SDS011;51055;59.436;24.778;2023-07-22T00:37:09;6.07;;;1.90;;
40907;SDS011;51055;59.436;24.778;2023-07-22T00:39:36;5.88;;;1.98;;
40907;SDS011;51055;59.436;24.778;2023-07-22T00:42:04;6.15;;;1.90;;
40907;SDS011;51055;59.436;24.778;2023-07-22T00:44:35;6.43;;;1.95;;
40907;SDS011;51055;59.436;24.778;2023-07-22T00:47:04;5.68;;;1.85;;
40907;SDS011;51055;59.436;24.778;2023-07-22T00:49:32;5.15;;;1.63;;
40907;SDS011;51055;59.436;24.778;2023-07-22T00:52:02;5.97;;;1.88;;
40907;SDS011;51055;59.436;24.778;2023-07-22T00:54:30;5.32;;;1.88;;
40907;SDS011;51055;59.436;24.778;2023-07-22T00:56:58;5.93;;;2.08;;
40907;SDS011;51055;59.436;24.778;2023-07-22T00:59:26;6.20;;;2.38;;
40907;SDS011;51055;59.436;24.778;2023-07-22T01:01:55;6.25;;;2.25;;
40907;SDS011;51055;59.436;24.778;2023-07-22T01:04:23;5.80;;;1.92;;
40907;SDS011;51055;59.436;24.778;2023-07-22T01:06:52;4.75;;;1.83;;
40907;SDS011;51055;59.436;24.778;2023-07-22T01:09:20;6.22;;;2.30;;
40907;SDS011;51055;59.436;24.778;2023-07-22T01:11:48;6.95;;;2.00;;
40907;SDS011;51055;59.436;24.778;2023-07-22T01:14:16;5.97;;;1.67;;
40907;SDS011;51055;59.436;24.778;2023-07-22T01:16:43;6.85;;;2.28;;
40907;SDS011;51055;59.436;24.778;2023-07-22T01:19:13;5.93;;;2.10;;
40907;SDS011;51055;59.436;24.778;2023-07-22T01:21:44;6.88;;;2.30;;
40907;SDS011;51055;59.436;24.778;2023-07-22T01:24:13;6.88;;;2.05;;
40907;SDS011;51055;59.436;24.778;2023-07-22T01:26:42;5.85;;;2.03;;
40907;SDS011;51055;59.436;24.778;2023-07-22T01:29:10;8.18;;;2.30;;
40907;SDS011;51055;59.436;24.778;2023-07-22T01:31:37;5.78;;;1.95;;
40907;SDS011;51055;59.436;24.778;2023-07-22T01:34:05;7.28;;;2.28;;
40907;SDS011;51055;59.436;24.778;2023-07-22T01:36:33;4.97;;;1.83;;
40907;SDS011;51055;59.436;24.778;2023-07-22T01:39:00;8.38;;;2.38;;
40907;SDS011;51055;59.436;24.778;2023-07-22T01:41:28;5.55;;;2.00;;
40907;SDS011;51055;59.436;24.778;2023-07-22T01:43:56;9.80;;;2.67;;
40907;SDS011;51055;59.436;24.778;2023-07-22T01:46:23;6.93;;;2.10;;
40907;SDS011;51055;59.436;24.778;2023-07-22T01:48:52;10.25;;;2.33;;
40907;SDS011;51055;59.436;24.778;2023-07-22T01:51:19;8.63;;;2.22;;
40907;SDS011;51055;59.436;24.778;2023-07-22T01:53:47;6.20;;;2.10;;
40907;SDS011;51055;59.436;24.778;2023-07-22T01:56:16;7.85;;;2.40;;
40907;SDS011;51055;59.436;24.778;2023-07-22T01:58:44;8.68;;;2.53;;
40907;SDS011;51055;59.436;24.778;2023-07-22T02:01:12;8.10;;;2.20;;
40907;SDS011;51055;59.436;24.778;2023-07-22T02:03:43;5.90;;;2.08;;
40907;SDS011;51055;59.436;24.778;2023-07-22T02:06:11;6.72;;;2.35;;
40907;SDS011;51055;59.436;24.778;2023-07-22T02:08:39;5.45;;;2.17;;
40907;SDS011;51055;59.436;24.778;2023-07-22T02:11:07;7.68;;;2.08;;
40907;SDS011;51055;59.436;24.778;2023-07-22T02:13:36;8.02;;;2.40;;
40907;SDS011;51055;59.436;24.778;2023-07-22T02:16:04;6.38;;;2.40;;
40907;SDS011;51055;59.436;24.778;2023-07-22T02:18:32;7.33;;;2.33;;
40907;SDS011;51055;59.436;24.778;2023-07-22T02:20:59;8.18;;;2.33;;
40907;SDS011;51055;59.436;24.778;2023-07-22T02:23:27;6.53;;;2.30;;
40907;SDS011;51055;59.436;24.778;2023-07-22T02:25:54;6.78;;;2.50;;
40907;SDS011;51055;59.436;24.778;2023-07-22T02:28:22;8.30;;;2.25;;
40907;SDS011;51055;59.436;24.778;2023-07-22T02:30:51;6.93;;;2.25;;
40907;SDS011;51055;59.436;24.778;2023-07-22T02:33:20;7.05;;;2.55;;
40907;SDS011;51055;59.436;24.778;2023-07-22T02:35:51;6.93;;;2.50;;
40907;SDS011;51055;59.436;24.778;2023-07-22T02:38:19;9.67;;;2.67;;
40907;SDS011;51055;59.436;24.778;2023-07-22T02:40:47;8.23;;;2.40;;
40907;SDS011;51055;59.436;24.778;2023-07-22T02:43:14;6.82;;;2.70;;
40907;SDS011;51055;59.436;24.778;2023-07-22T02:45:43;6.78;;;2.72;;
40907;SDS011;51055;59.436;24.778;2023-07-22T02:48:11;9.23;;;2.72;;
40907;SDS011;51055;59.436;24.778;2023-07-22T02:50:39;9.82;;;2.70;;
40907;SDS011;51055;59.436;24.778;2023-07-22T02:53:08;7.13;;;2.78;;
40907;SDS011;51055;59.436;24.778;2023-07-22T02:55:35;6.68;;;2.20;;
40907;SDS011;51055;59.436;24.778;2023-07-22T02:58:03;7.25;;;2.65;;
40907;SDS011;51055;59.436;24.778;2023-07-22T03:00:32;6.60;;;2.38;;
40907;SDS011;51055;59.436;24.778;2023-07-22T03:02:59;8.65;;;3.03;;
40907;SDS011;51055;59.436;24.778;2023-07-22T03:05:30;8.25;;;2.50;;
40907;SDS011;51055;59.436;24.778;2023-07-22T03:07:58;9.30;;;2.90;;
40907;SDS011;51055;59.436;24.778;2023-07-22T03:10:26;13.90;;;3.35;;
40907;SDS011;51055;59.436;24.778;2023-07-22T03:12:54;6.95;;;2.65;;
40907;SDS011;51055;59.436;24.778;2023-07-22T03:15:23;7.07;;;2.60;;
40907;SDS011;51055;59.436;24.778;2023-07-22T03:17:53;7.50;;;2.50;;
40907;SDS011;51055;59.436;24.778;2023-07-22T03:20:23;9.32;;;2.85;;
40907;SDS011;51055;59.436;24.778;2023-07-22T03:25:19;11.38;;;3.20;;
40907;SDS011;51055;59.436;24.778;2023-07-22T03:27:47;5.85;;;2.33;;
40907;SDS011;51055;59.436;24.778;2023-07-22T03:30:15;8.23;;;2.95;;
40907;SDS011;51055;59.436;24.778;2023-07-22T03:32:45;8.93;;;3.15;;
40907;SDS011;51055;59.436;24.778;2023-07-22T03:35:15;6.55;;;2.88;;
40907;SDS011;51055;59.436;24.778;2023-07-22T03:37:43;9.07;;;2.70;;
40907;SDS011;51055;59.436;24.778;2023-07-22T03:40:11;7.85;;;2.75;;
40907;SDS011;51055;59.436;24.778;2023-07-22T03:42:51;9.38;;;3.05;;
40907;SDS011;51055;59.436;24.778;2023-07-22T03:45:19;10.52;;;3.17;;
40907;SDS011;51055;59.436;24.778;2023-07-22T03:47:52;8.40;;;3.05;;
40907;SDS011;51055;59.436;24.778;2023-07-22T03:50:27;7.35;;;2.67;;
40907;SDS011;51055;59.436;24.778;2023-07-22T03:52:55;6.63;;;2.92;;
40907;SDS011;51055;59.436;24.778;2023-07-22T03:55:23;7.57;;;2.60;;
40907;SDS011;51055;59.436;24.778;2023-07-22T03:57:50;9.18;;;2.88;;
40907;SDS011;51055;59.436;24.778;2023-07-22T04:00:18;6.53;;;2.45;;
40907;SDS011;51055;59.436;24.778;2023-07-22T04:02:47;8.45;;;3.20;;
40907;SDS011;51055;59.436;24.778;2023-07-22T04:05:15;7.78;;;2.60;;
40907;SDS011;51055;59.436;24.778;2023-07-22T04:07:43;8.30;;;2.78;;
40907;SDS011;51055;59.436;24.778;2023-07-22T04:10:12;9.75;;;2.70;;
40907;SDS011;51055;59.436;24.778;2023-07-22T04:12:40;9.82;;;2.60;;
40907;SDS011;51055;59.436;24.778;2023-07-22T04:15:09;8.55;;;2.88;;
40907;SDS011;51055;59.436;24.778;2023-07-22T04:17:37;8.27;;;2.75;;
40907;SDS011;51055;59.436;24.778;2023-07-22T04:20:05;10.43;;;2.75;;
40907;SDS011;51055;59.436;24.778;2023-07-22T04:22:35;6.85;;;2.72;;
40907;SDS011;51055;59.436;24.778;2023-07-22T04:25:03;8.93;;;3.47;;
40907;SDS011;51055;59.436;24.778;2023-07-22T04:27:32;9.88;;;3.17;;
40907;SDS011;51055;59.436;24.778;2023-07-22T04:30:00;6.95;;;2.90;;
40907;SDS011;51055;59.436;24.778;2023-07-22T04:32:28;8.63;;;2.72;;
40907;SDS011;51055;59.436;24.778;2023-07-22T04:34:56;7.47;;;2.97;;
40907;SDS011;51055;59.436;24.778;2023-07-22T04:37:23;8.57;;;2.75;;
40907;SDS011;51055;59.436;24.778;2023-07-22T04:39:51;9.00;;;2.95;;
40907;SDS011;51055;59.436;24.778;2023-07-22T04:42:19;7.63;;;2.85;;
40907;SDS011;51055;59.436;24.778;2023-07-22T04:44:46;8.80;;;3.03;;
40907;SDS011;51055;59.436;24.778;2023-07-22T04:47:14;7.95;;;3.00;;
40907;SDS011;51055;59.436;24.778;2023-07-22T04:49:43;10.45;;;2.83;;
40907;SDS011;51055;59.436;24.778;2023-07-22T04:52:11;7.63;;;2.67;;
40907;SDS011;51055;59.436;24.778;2023-07-22T04:54:38;8.75;;;2.78;;
40907;SDS011;51055;59.436;24.778;2023-07-22T04:57:06;11.05;;;2.88;;
40907;SDS011;51055;59.436;24.778;2023-07-22T04:59:33;7.35;;;2.72;;
40907;SDS011;51055;59.436;24.778;2023-07-22T05:02:01;7.10;;;2.70;;
40907;SDS011;51055;59.436;24.778;2023-07-22T05:04:28;7.45;;;2.67;;
40907;SDS011;51055;59.436;24.778;2023-07-22T05:06:56;8.32;;;2.85;;
40907;SDS011;51055;59.436;24.778;2023-07-22T05:09:24;9.80;;;2.58;;
40907;SDS011;51055;59.436;24.778;2023-07-22T05:11:51;8.10;;;2.45;;
40907;SDS011;51055;59.436;24.778;2023-07-22T05:14:19;5.72;;;2.50;;
40907;SDS011;51055;59.436;24.778;2023-07-22T05:16:47;10.85;;;2.90;;
40907;SDS011;51055;59.436;24.778;2023-07-22T05:19:15;6.05;;;2.33;;
40907;SDS011;51055;59.436;24.778;2023-07-22T05:21:42;7.03;;;2.45;;
40907;SDS011;51055;59.436;24.778;2023-07-22T05:24:10;9.18;;;2.25;;
40907;SDS011;51055;59.436;24.778;2023-07-22T05:26:38;8.25;;;2.67;;
40907;SDS011;51055;59.436;24.778;2023-07-22T05:29:05;7.60;;;2.40;;
40907;SDS011;51055;59.436;24.778;2023-07-22T05:34:02;5.97;;;2.20;;
40907;SDS011;51055;59.436;24.778;2023-07-22T05:36:31;5.80;;;2.20;;
40907;SDS011;51055;59.436;24.778;2023-07-22T05:38:58;7.00;;;2.17;;
40907;SDS011;51055;59.436;24.778;2023-07-22T05:41:26;7.45;;;2.60;;
40907;SDS011;51055;59.436;24.778;2023-07-22T05:43:54;6.93;;;2.00;;
40907;SDS011;51055;59.436;24.778;2023-07-22T05:46:22;7.97;;;2.33;;
40907;SDS011;51055;59.436;24.778;2023-07-22T05:48:49;5.80;;;1.80;;
40907;SDS011;51055;59.436;24.778;2023-07-22T05:51:18;7.57;;;2.25;;
40907;SDS011;51055;59.436;24.778;2023-07-22T05:53:45;6.30;;;2.15;;
40907;SDS011;51055;59.436;24.778;2023-07-22T05:56:13;6.78;;;2.13;;
40907;SDS011;51055;59.436;24.778;2023-07-22T05:58:40;4.88;;;1.60;;
40907;SDS011;51055;59.436;24.778;2023-07-22T06:01:08;6.10;;;1.90;;
40907;SDS011;51055;59.436;24.778;2023-07-22T06:03:36;7.13;;;2.22;;
40907;SDS011;51055;59.436;24.778;2023-07-22T06:06:04;7.13;;;2.17;;
40907;SDS011;51055;59.436;24.778;2023-07-22T06:08:31;4.95;;;1.80;;
40907;SDS011;51055;59.436;24.778;2023-07-22T06:10:59;5.57;;;1.95;;
40907;SDS011;51055;59.436;24.778;2023-07-22T06:13:27;5.07;;;1.67;;
40907;SDS011;51055;59.436;24.778;2023-07-22T06:18:23;4.85;;;1.60;;
40907;SDS011;51055;59.436;24.778;2023-07-22T06:20:50;6.05;;;1.80;;
40907;SDS011;51055;59.436;24.778;2023-07-22T06:23:18;5.47;;;1.80;;
40907;SDS011;51055;59.436;24.778;2023-07-22T06:25:46;5.03;;;1.63;;
40907;SDS011;51055;59.436;24.778;2023-07-22T06:28:13;5.68;;;1.58;;
40907;SDS011;51055;59.436;24.778;2023-07-22T06:30:41;5.47;;;1.67;;
40907;SDS011;51055;59.436;24.778;2023-07-22T06:33:09;4.25;;;1.73;;
40907;SDS011;51055;59.436;24.778;2023-07-22T06:35:36;6.10;;;1.70;;
40907;SDS011;51055;59.436;24.778;2023-07-22T06:38:04;5.95;;;1.70;;
40907;SDS011;51055;59.436;24.778;2023-07-22T06:40:31;4.15;;;1.83;;
40907;SDS011;51055;59.436;24.778;2023-07-22T06:42:59;4.85;;;2.00;;
40907;SDS011;51055;59.436;24.778;2023-07-22T06:45:27;4.63;;;1.57;;
40907;SDS011;51055;59.436;24.778;2023-07-22T06:47:55;4.07;;;1.52;;
40907;SDS011;51055;59.436;24.778;2023-07-22T06:50:22;6.18;;;1.77;;
40907;SDS011;51055;59.436;24.778;2023-07-22T06:52:50;5.22;;;1.70;;
40907;SDS011;51055;59.436;24.778;2023-07-22T06:55:18;4.85;;;1.52;;
40907;SDS011;51055;59.436;24.778;2023-07-22T06:57:47;4.10;;;1.30;;
40907;SDS011;51055;59.436;24.778;2023-07-22T07:00:16;3.63;;;1.42;;
40907;SDS011;51055;59.436;24.778;2023-07-22T07:02:46;4.20;;;1.38;;
40907;SDS011;51055;59.436;24.778;2023-07-22T07:05:14;3.50;;;1.25;;
40907;SDS011;51055;59.436;24.778;2023-07-22T07:07:43;4.18;;;1.38;;
40907;SDS011;51055;59.436;24.778;2023-07-22T07:10:11;3.20;;;1.15;;
40907;SDS011;51055;59.436;24.778;2023-07-22T07:12:39;3.90;;;1.27;;
40907;SDS011;51055;59.436;24.778;2023-07-22T07:15:07;4.88;;;1.30;;
40907;SDS011;51055;59.436;24.778;2023-07-22T07:17:36;4.68;;;1.33;;
40907;SDS011;51055;59.436;24.778;2023-07-22T07:20:03;6.75;;;1.63;;
40907;SDS011;51055;59.436;24.778;2023-07-22T07:22:34;7.28;;;1.77;;
40907;SDS011;51055;59.436;24.778;2023-07-22T07:25:01;6.45;;;1.38;;
40907;SDS011;51055;59.436;24.778;2023-07-22T07:27:29;3.28;;;1.35;;
40907;SDS011;51055;59.436;24.778;2023-07-22T07:29:57;4.53;;;1.60;;
40907;SDS011;51055;59.436;24.778;2023-07-22T07:32:25;3.97;;;1.40;;
40907;SDS011;51055;59.436;24.778;2023-07-22T07:34:53;3.57;;;1.20;;
40907;SDS011;51055;59.436;24.778;2023-07-22T07:37:22;4.45;;;1.65;;
40907;SDS011;51055;59.436;24.778;2023-07-22T07:39:50;5.38;;;2.08;;
40907;SDS011;51055;59.436;24.778;2023-07-22T07:42:18;5.20;;;1.85;;
40907;SDS011;51055;59.436;24.778;2023-07-22T07:44:46;6.03;;;1.63;;
40907;SDS011;51055;59.436;24.778;2023-07-22T07:47:13;5.13;;;1.55;;
40907;SDS011;51055;59.436;24.778;2023-07-22T07:49:41;5.22;;;1.63;;
40907;SDS011;51055;59.436;24.778;2023-07-22T07:52:08;4.57;;;1.83;;
40907;SDS011;51055;59.436;24.778;2023-07-22T07:54:36;6.82;;;1.58;;
40907;SDS011;51055;59.436;24.778;2023-07-22T07:57:03;5.25;;;1.60;;
40907;SDS011;51055;59.436;24.778;2023-07-22T07:59:31;5.13;;;2.20;;
40907;SDS011;51055;59.436;24.778;2023-07-22T08:01:59;5.38;;;1.63;;
40907;SDS011;51055;59.436;24.778;2023-07-22T08:04:26;4.97;;;1.88;;
40907;SDS011;51055;59.436;24.778;2023-07-22T08:06:54;4.83;;;1.60;;
40907;SDS011;51055;59.436;24.778;2023-07-22T08:09:22;6.30;;;1.60;;
40907;SDS011;51055;59.436;24.778;2023-07-22T08:11:50;3.63;;;1.63;;
40907;SDS011;51055;59.436;24.778;2023-07-22T08:14:17;4.15;;;1.48;;
40907;SDS011;51055;59.436;24.778;2023-07-22T08:16:45;4.55;;;1.45;;
40907;SDS011;51055;59.436;24.778;2023-07-22T08:19:13;5.28;;;1.98;;
40907;SDS011;51055;59.436;24.778;2023-07-22T08:21:40;3.65;;;1.63;;
40907;SDS011;51055;59.436;24.778;2023-07-22T08:24:08;4.00;;;1.63;;
40907;SDS011;51055;59.436;24.778;2023-07-22T08:26:36;4.80;;;1.77;;
40907;SDS011;51055;59.436;24.778;2023-07-22T08:29:04;3.70;;;1.50;;
40907;SDS011;51055;59.436;24.778;2023-07-22T08:31:32;3.75;;;1.52;;
40907;SDS011;51055;59.436;24.778;2023-07-22T08:33:59;6.45;;;1.80;;
40907;SDS011;51055;59.436;24.778;2023-07-22T08:36:27;3.75;;;1.48;;
40907;SDS011;51055;59.436;24.778;2023-07-22T08:38:55;4.47;;;1.70;;
40907;SDS011;51055;59.436;24.778;2023-07-22T08:41:22;4.18;;;1.60;;
40907;SDS011;51055;59.436;24.778;2023-07-22T08:43:52;4.75;;;1.70;;
40907;SDS011;51055;59.436;24.778;2023-07-22T08:46:22;5.20;;;1.77;;
40907;SDS011;51055;59.436;24.778;2023-07-22T08:48:56;4.63;;;1.70;;
40907;SDS011;51055;59.436;24.778;2023-07-22T08:51:26;3.65;;;1.55;;
40907;SDS011;51055;59.436;24.778;2023-07-22T08:53:57;4.63;;;1.60;;
40907;SDS011;51055;59.436;24.778;2023-07-22T08:56:37;3.58;;;1.60;;
40907;SDS011;51055;59.436;24.778;2023-07-22T08:59:06;4.57;;;1.70;;
40907;SDS011;51055;59.436;24.778;2023-07-22T09:01:34;4.05;;;1.58;;
40907;SDS011;51055;59.436;24.778;2023-07-22T09:04:04;3.97;;;1.45;;
40907;SDS011;51055;59.436;24.778;2023-07-22T09:06:32;4.15;;;1.63;;
40907;SDS011;51055;59.436;24.778;2023-07-22T09:09:02;6.25;;;1.65;;
40907;SDS011;51055;59.436;24.778;2023-07-22T09:11:35;5.20;;;1.60;;
40907;SDS011;51055;59.436;24.778;2023-07-22T09:14:03;4.72;;;1.58;;
40907;SDS011;51055;59.436;24.778;2023-07-22T09:16:32;5.97;;;1.77;;
40907;SDS011;51055;59.436;24.778;2023-07-22T09:21:30;3.88;;;1.50;;
40907;SDS011;51055;59.436;24.778;2023-07-22T09:23:58;4.90;;;1.60;;
40907;SDS011;51055;59.436;24.778;2023-07-22T09:26:25;4.47;;;1.58;;
40907;SDS011;51055;59.436;24.778;2023-07-22T09:28:55;5.88;;;1.77;;
40907;SDS011;51055;59.436;24.778;2023-07-22T09:31:25;4.63;;;1.65;;
40907;SDS011;51055;59.436;24.778;2023-07-22T09:33:53;5.78;;;1.63;;
40907;SDS011;51055;59.436;24.778;2023-07-22T09:36:22;6.30;;;2.00;;
40907;SDS011;51055;59.436;24.778;2023-07-22T09:38:59;5.75;;;1.65;;
40907;SDS011;51055;59.436;24.778;2023-07-22T09:41:30;4.90;;;1.85;;
40907;SDS011;51055;59.436;24.778;2023-07-22T09:44:02;4.43;;;1.50;;
40907;SDS011;51055;59.436;24.778;2023-07-22T09:46:31;5.97;;;1.73;;
40907;SDS011;51055;59.436;24.778;2023-07-22T09:49:04;3.13;;;1.50;;
40907;SDS011;51055;59.436;24.778;2023-07-22T09:51:35;3.33;;;1.42;;
40907;SDS011;51055;59.436;24.778;2023-07-22T09:54:24;3.92;;;1.50;;
40907;SDS011;51055;59.436;24.778;2023-07-22T09:56:56;3.20;;;1.50;;
40907;SDS011;51055;59.436;24.778;2023-07-22T09:59:24;3.70;;;1.50;;
40907;SDS011;51055;59.436;24.778;2023-07-22T10:01:56;3.80;;;1.42;;
40907;SDS011;51055;59.436;24.778;2023-07-22T10:04:26;3.88;;;1.67;;
40907;SDS011;51055;59.436;24.778;2023-07-22T10:06:59;3.83;;;1.55;;
40907;SDS011;51055;59.436;24.778;2023-07-22T10:09:27;3.75;;;1.52;;
40907;SDS011;51055;59.436;24.778;2023-07-22T10:11:56;4.35;;;1.60;;
40907;SDS011;51055;59.436;24.778;2023-07-22T10:14:23;4.47;;;1.73;;
40907;SDS011;51055;59.436;24.778;2023-07-22T10:16:52;2.85;;;1.45;;
40907;SDS011;51055;59.436;24.778;2023-07-22T10:19:20;3.03;;;1.33;;
40907;SDS011;51055;59.436;24.778;2023-07-22T10:21:50;4.95;;;1.40;;
40907;SDS011;51055;59.436;24.778;2023-07-22T10:24:18;2.35;;;1.30;;
40907;SDS011;51055;59.436;24.778;2023-07-22T10:26:47;2.53;;;1.20;;
40907;SDS011;51055;59.436;24.778;2023-07-22T10:29:20;4.30;;;1.67;;
40907;SDS011;51055;59.436;24.778;2023-07-22T10:34:21;2.83;;;1.45;;
40907;SDS011;51055;59.436;24.778;2023-07-22T10:36:49;2.70;;;1.20;;
40907;SDS011;51055;59.436;24.778;2023-07-22T10:39:27;2.92;;;1.30;;
40907;SDS011;51055;59.436;24.778;2023-07-22T10:42:23;3.33;;;1.30;;
40907;SDS011;51055;59.436;24.778;2023-07-22T10:44:53;2.83;;;1.42;;
40907;SDS011;51055;59.436;24.778;2023-07-22T10:47:33;2.63;;;1.40;;
40907;SDS011;51055;59.436;24.778;2023-07-22T10:50:07;2.72;;;1.30;;
40907;SDS011;51055;59.436;24.778;2023-07-22T10:52:42;2.25;;;1.30;;
40907;SDS011;51055;59.436;24.778;2023-07-22T10:55:17;2.90;;;1.40;;
40907;SDS011;51055;59.436;24.778;2023-07-22T10:57:53;4.50;;;1.50;;
40907;SDS011;51055;59.436;24.778;2023-07-22T11:00:23;3.33;;;1.50;;
40907;SDS011;51055;59.436;24.778;2023-07-22T11:03:12;3.35;;;1.30;;
40907;SDS011;51055;59.436;24.778;2023-07-22T11:05:47;3.80;;;1.55;;
40907;SDS011;51055;59.436;24.778;2023-07-22T11:08:34;4.07;;;1.45;;
40907;SDS011;51055;59.436;24.778;2023-07-22T11:11:06;3.97;;;1.70;;
40907;SDS011;51055;59.436;24.778;2023-07-22T11:13:40;4.55;;;1.50;;
40907;SDS011;51055;59.436;24.778;2023-07-22T11:16:11;3.03;;;1.45;;
40907;SDS011;51055;59.436;24.778;2023-07-22T11:18:40;3.47;;;1.38;;
40907;SDS011;51055;59.436;24.778;2023-07-22T11:21:11;3.70;;;1.60;;
40907;SDS011;51055;59.436;24.778;2023-07-22T11:23:39;3.10;;;1.65;;
40907;SDS011;51055;59.436;24.778;2023-07-22T11:26:07;4.25;;;1.50;;
40907;SDS011;51055;59.436;24.778;2023-07-22T11:28:34;3.60;;;1.50;;
40907;SDS011;51055;59.436;24.778;2023-07-22T11:31:02;3.80;;;1.70;;
40907;SDS011;51055;59.436;24.778;2023-07-22T11:33:40;3.80;;;1.58;;
40907;SDS011;51055;59.436;24.778;2023-07-22T11:36:10;3.08;;;1.30;;
40907;SDS011;51055;59.436;24.778;2023-07-22T11:38:38;4.00;;;1.38;;
40907;SDS011;51055;59.436;24.778;2023-07-22T11:41:06;2.83;;;1.48;;
40907;SDS011;51055;59.436;24.778;2023-07-22T11:43:35;3.13;;;1.20;;
40907;SDS011;51055;59.436;24.778;2023-07-22T11:46:04;3.40;;;1.30;;
40907;SDS011;51055;59.436;24.778;2023-07-22T11:48:33;4.40;;;1.30;;
40907;SDS011;51055;59.436;24.778;2023-07-22T11:51:01;2.72;;;1.23;;
40907;SDS011;51055;59.436;24.778;2023-07-22T11:53:29;2.30;;;1.15;;
40907;SDS011;51055;59.436;24.778;2023-07-22T11:55:57;4.70;;;1.30;;
40907;SDS011;51055;59.436;24.778;2023-07-22T11:58:25;3.03;;;1.30;;
40907;SDS011;51055;59.436;24.778;2023-07-22T12:01:05;2.72;;;1.10;;
40907;SDS011;51055;59.436;24.778;2023-07-22T12:03:35;3.00;;;1.15;;
40907;SDS011;51055;59.436;24.778;2023-07-22T12:06:03;3.65;;;1.25;;
40907;SDS011;51055;59.436;24.778;2023-07-22T12:08:31;3.28;;;1.20;;
40907;SDS011;51055;59.436;24.778;2023-07-22T12:10:59;3.08;;;1.17;;
40907;SDS011;51055;59.436;24.778;2023-07-22T12:13:28;3.85;;;1.70;;
40907;SDS011;51055;59.436;24.778;2023-07-22T12:16:02;2.83;;;1.40;;
40907;SDS011;51055;59.436;24.778;2023-07-22T12:18:41;3.30;;;1.40;;
40907;SDS011;51055;59.436;24.778;2023-07-22T12:21:15;4.20;;;1.60;;
40907;SDS011;51055;59.436;24.778;2023-07-22T12:23:42;3.30;;;1.40;;
40907;SDS011;51055;59.436;24.778;2023-07-22T12:26:10;3.88;;;1.40;;
40907;SDS011;51055;59.436;24.778;2023-07-22T12:28:38;3.78;;;1.50;;
40907;SDS011;51055;59.436;24.778;2023-07-22T12:31:06;3.35;;;1.50;;
40907;SDS011;51055;59.436;24.778;2023-07-22T12:33:34;4.40;;;1.50;;
40907;SDS011;51055;59.436;24.778;2023-07-22T12:36:02;3.38;;;1.50;;
40907;SDS011;51055;59.436;24.778;2023-07-22T12:38:30;3.15;;;1.40;;
40907;SDS011;51055;59.436;24.778;2023-07-22T12:40:58;4.20;;;1.60;;
40907;SDS011;51055;59.436;24.778;2023-07-22T12:43:27;3.83;;;1.50;;
40907;SDS011;51055;59.436;24.778;2023-07-22T12:45:58;2.90;;;1.40;;
40907;SDS011;51055;59.436;24.778;2023-07-22T12:48:26;3.28;;;1.30;;
40907;SDS011;51055;59.436;24.778;2023-07-22T12:50:53;4.53;;;1.50;;
40907;SDS011;51055;59.436;24.778;2023-07-22T12:53:22;4.25;;;1.95;;
40907;SDS011;51055;59.436;24.778;2023-07-22T12:55:50;4.18;;;1.40;;
40907;SDS011;51055;59.436;24.778;2023-07-22T12:58:18;5.05;;;1.58;;
40907;SDS011;51055;59.436;24.778;2023-07-22T13:00:46;3.63;;;1.50;;
40907;SDS011;51055;59.436;24.778;2023-07-22T13:03:13;3.40;;;1.60;;
40907;SDS011;51055;59.436;24.778;2023-07-22T13:05:41;5.15;;;1.50;;
40907;SDS011;51055;59.436;24.778;2023-07-22T13:08:09;5.97;;;1.60;;
40907;SDS011;51055;59.436;24.778;2023-07-22T13:10:36;4.15;;;1.50;;
40907;SDS011;51055;59.436;24.778;2023-07-22T13:13:06;4.38;;;1.60;;
40907;SDS011;51055;59.436;24.778;2023-07-22T13:15:34;4.82;;;1.67;;
40907;SDS011;51055;59.436;24.778;2023-07-22T13:18:04;3.75;;;1.20;;
40907;SDS011;51055;59.436;24.778;2023-07-22T13:20:32;5.55;;;1.30;;
40907;SDS011;51055;59.436;24.778;2023-07-22T13:22:59;3.87;;;1.20;;
40907;SDS011;51055;59.436;24.778;2023-07-22T13:25:27;5.50;;;1.20;;
40907;SDS011;51055;59.436;24.778;2023-07-22T13:27:55;3.90;;;1.40;;
40907;SDS011;51055;59.436;24.778;2023-07-22T13:30:23;4.22;;;1.20;;
40907;SDS011;51055;59.436;24.778;2023-07-22T13:32:50;4.22;;;1.40;;
40907;SDS011;51055;59.436;24.778;2023-07-22T13:35:20;3.75;;;1.35;;
40907;SDS011;51055;59.436;24.778;2023-07-22T13:37:47;3.80;;;1.52;;
40907;SDS011;51055;59.436;24.778;2023-07-22T13:40:15;3.30;;;1.00;;
40907;SDS011;51055;59.436;24.778;2023-07-22T13:42:42;4.40;;;1.20;;
40907;SDS011;51055;59.436;24.778;2023-07-22T13:45:11;4.40;;;1.10;;
40907;SDS011;51055;59.436;24.778;2023-07-22T13:47:39;4.20;;;1.13;;
40907;SDS011;51055;59.436;24.778;2023-07-22T13:50:07;3.03;;;1.40;;
40907;SDS011;51055;59.436;24.778;2023-07-22T13:52:35;5.20;;;1.38;;
40907;SDS011;51055;59.436;24.778;2023-07-22T13:55:03;3.97;;;1.30;;
40907;SDS011;51055;59.436;24.778;2023-07-22T13:57:31;5.97;;;1.60;;
40907;SDS011;51055;59.436;24.778;2023-07-22T13:59:58;3.70;;;1.40;;
40907;SDS011;51055;59.436;24.778;2023-07-22T14:02:26;4.72;;;1.63;;
40907;SDS011;51055;59.436;24.778;2023-07-22T14:04:54;5.65;;;1.30;;
40907;SDS011;51055;59.436;24.778;2023-07-22T14:07:21;3.38;;;1.17;;
40907;SDS011;51055;59.436;24.778;2023-07-22T14:09:49;6.25;;;1.30;;
40907;SDS011;51055;59.436;24.778;2023-07-22T14:12:17;4.93;;;1.23;;
40907;SDS011;51055;59.436;24.778;2023-07-22T14:14:45;3.78;;;1.05;;
40907;SDS011;51055;59.436;24.778;2023-07-22T14:17:12;4.22;;;1.17;;
40907;SDS011;51055;59.436;24.778;2023-07-22T14:19:40;3.63;;;1.17;;
40907;SDS011;51055;59.436;24.778;2023-07-22T14:24:36;3.70;;;1.23;;
40907;SDS011;51055;59.436;24.778;2023-07-22T14:27:05;3.95;;;1.15;;
40907;SDS011;51055;59.436;24.778;2023-07-22T14:29:33;7.72;;;1.33;;
40907;SDS011;51055;59.436;24.778;2023-07-22T14:32:00;3.65;;;1.30;;
40907;SDS011;51055;59.436;24.778;2023-07-22T14:34:28;7.55;;;1.30;;
40907;SDS011;51055;59.436;24.778;2023-07-22T14:36:56;3.85;;;1.30;;
40907;SDS011;51055;59.436;24.778;2023-07-22T14:39:23;3.35;;;1.23;;
40907;SDS011;51055;59.436;24.778;2023-07-22T14:41:51;3.20;;;1.15;;
40907;SDS011;51055;59.436;24.778;2023-07-22T14:44:19;4.50;;;1.20;;
40907;SDS011;51055;59.436;24.778;2023-07-22T14:46:47;3.83;;;1.27;;
40907;SDS011;51055;59.436;24.778;2023-07-22T14:49:15;4.25;;;1.33;;
40907;SDS011;51055;59.436;24.778;2023-07-22T14:51:43;5.80;;;1.30;;
40907;SDS011;51055;59.436;24.778;2023-07-22T14:54:11;4.53;;;1.63;;
40907;SDS011;51055;59.436;24.778;2023-07-22T14:56:38;4.85;;;1.27;;